KRAP/RAP METAR and TAF weather

Enter ICAO airport designator
Station Type Date Time Source
KRAP METAR 2019/02/17 15:52 UTC NOAA

KRAP 171552Z 33022G32KT 2 1/2SM -SN BKN040 OVC050 M15/M19 A3001 RMK AO2 PK WND 33036/1521 SNB28 SLP233 P0000 T11501194


Station Type Date Time Source
KRAP Decoded METAR 2019/02/17 15:52 UTC NOAA

RAPID CITY REGIONAL AIRPORT , SD, United States (KRAP) 44-03N 103-03W 965M
Feb 17, 2019 - 10:52 AM EST / 2019.02.17 1552 UTC
Wind: from the NNW (330 degrees) at 25 MPH (22 KT) gusting to 37 MPH (32 KT):0
Visibility: 2 1/2 mile(s):0
Sky conditions: overcast
Weather: light snow
Precipitation last hour: A trace
Temperature: 5.0 F (-15.0 C)
Windchill: -16 F (-27 C):2
Dew Point: -2.9 F (-19.4 C)
Relative Humidity: 69%
Pressure (altimeter): 30.01 in. Hg (1016 hPa)
ob: KRAP 171552Z 33022G32KT 2 1/2SM -SN BKN040 OVC050 M15/M19 A3001 RMK AO2 PK WND 33036/1521 SNB28 SLP233 P0000 T11501194
cycle: 16

Station Type Date Time Source
KRAP TAF 2019/02/17 16:03 UTC NOAA

TAF
AMD KRAP 171601Z 1716/1812 33022G32KT 5SM -SN OVC040
TEMPO 1716/1720 2SM -SN BLSN OVC025
FM180300 35008KT P6SM OVC025
FM181100 34008KT P6SM BKN060


Example: see airport list